»·PEaware :: AAL1733 KSNA-KPHX

AAL1733 :: KSNA-KPHX

FLIGHT INFORMATION

Flight Status: Arrived
Operator:
American Airlines
More flights by this operator :: More flights under this callsign
Pilot: Drew L. (13237)
Aircraft: AIRBUS A321
(A321)
More flights by this aircraft type
Origin: KSNA John Wayne-Orange Co
United States
Destination: KPHX Phoenix Sky Harbor Intl
United States
More flights between these airports :: More routes between these airports
Route: +STAYY3 CNERY BLH HYDRR1
File this flight plan on PilotEdge
Remarks: RMK / SIMBRIEF
Altitude:
(Current/Filed)
31,000ft
Speed:
(Current/Filed)
445kts
Departed: 07-Oct-20 03:55 PM
Arrived: 07-Oct-20 04:46 PM
Distance/Time
Traveled:
294nm/0:50
Distance/Time
To Go:
Arrived

Flight Plot

Page will automatically refresh every two minutes.

Flight plan parsing failed; only flown route is shown


Map Options




Map Legend


Flown Route
Filed Route
Departure Airport
Arrival Airport
Navaid (VOR, NDB)
Fix

Horizontal Profiles

Position Reports

Time Latitude Longitude Heading Altitude Ground
Speed
07-Oct-20 15:06 33.679333 -117.862349 116 65ft 0kts
07-Oct-20 15:07 33.679333 -117.862349 116 65ft 0kts
07-Oct-20 15:08 33.679333 -117.862349 116 65ft 0kts
07-Oct-20 15:09 33.679333 -117.862349 116 65ft 0kts
07-Oct-20 15:10 33.679333 -117.862349 116 65ft 0kts
07-Oct-20 15:11 33.679333 -117.862349 116 65ft 0kts
07-Oct-20 15:12 33.679333 -117.862349 116 65ft 0kts
07-Oct-20 15:13 33.679333 -117.862349 116 65ft 0kts
07-Oct-20 15:14 33.679333 -117.862349 116 65ft 0kts
07-Oct-20 15:15 33.679333 -117.862349 116 65ft 0kts
07-Oct-20 15:16 33.679333 -117.862349 116 65ft 0kts
07-Oct-20 15:17 33.679333 -117.862349 116 65ft 0kts
07-Oct-20 15:18 33.679333 -117.862349 116 65ft 0kts
07-Oct-20 15:20 33.679333 -117.862349 116 65ft 0kts
07-Oct-20 15:21 33.679333 -117.862349 116 65ft 0kts
07-Oct-20 15:22 33.679333 -117.862349 116 65ft 0kts
07-Oct-20 15:23 33.679333 -117.862349 116 65ft 0kts
07-Oct-20 15:24 33.679333 -117.862349 116 65ft 0kts
07-Oct-20 15:25 33.679333 -117.862349 116 65ft 0kts
07-Oct-20 15:26 33.679333 -117.862349 116 65ft 0kts
07-Oct-20 15:27 33.679333 -117.862349 116 65ft 0kts
07-Oct-20 15:28 33.679333 -117.862349 116 65ft 0kts
07-Oct-20 15:29 33.679333 -117.862349 116 65ft 0kts
07-Oct-20 15:30 33.679333 -117.862349 116 65ft 0kts
07-Oct-20 15:31 33.679333 -117.862349 116 65ft 0kts
07-Oct-20 15:32 33.679333 -117.862349 116 65ft 0kts
07-Oct-20 15:33 33.679333 -117.862349 116 65ft 0kts
07-Oct-20 15:34 33.679333 -117.862349 116 65ft 0kts
07-Oct-20 15:35 33.679333 -117.862349 116 65ft 0kts
07-Oct-20 15:35 33.679333 -117.862349 116 65ft 0kts
07-Oct-20 15:37 33.679333 -117.862349 116 65ft 0kts
07-Oct-20 15:37 33.679333 -117.862349 116 65ft 0kts
07-Oct-20 15:39 33.679333 -117.862349 116 65ft 0kts
07-Oct-20 15:39 33.679333 -117.862349 116 65ft 0kts
07-Oct-20 15:40 33.679333 -117.862349 116 65ft 0kts
07-Oct-20 15:41 33.679333 -117.862349 116 65ft 0kts
07-Oct-20 15:42 33.679333 -117.862349 116 65ft 0kts
07-Oct-20 15:43 33.679429 -117.862694 89 65ft 2kts
07-Oct-20 15:44 33.679170 -117.863247 28 65ft 1kts
07-Oct-20 15:45 33.679120 -117.863276 26 65ft 0kts
07-Oct-20 15:46 33.679120 -117.863276 26 65ft 0kts
07-Oct-20 15:47 33.679120 -117.863276 26 65ft 0kts
07-Oct-20 15:48 33.679120 -117.863276 26 65ft 0kts
07-Oct-20 15:49 33.679120 -117.863276 26 65ft 0kts
07-Oct-20 15:50 33.680591 -117.862952 298 65ft 8kts
07-Oct-20 15:51 33.680635 -117.863055 297 65ft 0kts
07-Oct-20 15:52 33.680635 -117.863055 297 65ft 0kts
07-Oct-20 15:53 33.681478 -117.865161 227 65ft 6kts
07-Oct-20 15:54 33.659238 -117.879619 207 1050ft 167kts
07-Oct-20 15:55 33.610373 -117.896016 195 2965ft 212kts
07-Oct-20 15:56 33.545889 -117.883411 154 5022ft 263kts
07-Oct-20 15:57 33.493320 -117.824199 117 7963ft 280kts
07-Oct-20 15:58 33.477624 -117.731054 87 10523ft 305kts
07-Oct-20 15:59 33.514200 -117.626934 62 11632ft 375kts
07-Oct-20 16:00 33.568565 -117.512949 68 13715ft 401kts
07-Oct-20 16:01 33.553347 -117.385929 115 15658ft 404kts
07-Oct-20 16:02 33.513163 -117.257436 109 17702ft 423kts
07-Oct-20 16:03 33.501919 -117.112847 93 19788ft 440kts
07-Oct-20 16:04 33.499346 -116.964526 93 21640ft 450kts
07-Oct-20 16:05 33.496951 -116.812863 92 23268ft 460kts
07-Oct-20 16:06 33.495251 -116.657580 92 24646ft 472kts
07-Oct-20 16:07 33.493116 -116.498816 91 25995ft 479kts
07-Oct-20 16:08 33.490852 -116.339702 92 27653ft 475kts
07-Oct-20 16:09 33.488418 -116.181907 91 29006ft 473kts
07-Oct-20 16:10 33.493305 -116.024625 79 30202ft 472kts
07-Oct-20 16:11 33.531899 -115.875278 69 30794ft 469kts
07-Oct-20 16:12 33.575397 -115.727623 69 30799ft 469kts
07-Oct-20 16:13 33.611486 -115.577702 81 30799ft 470kts
07-Oct-20 16:14 33.614190 -115.421017 92 30799ft 470kts
07-Oct-20 16:15 33.609722 -115.264297 91 30811ft 475kts
07-Oct-20 16:16 33.605662 -115.105519 91 30829ft 472kts
07-Oct-20 16:17 33.601393 -114.949447 92 30836ft 467kts
07-Oct-20 16:18 33.596343 -114.793904 95 30835ft 466kts
07-Oct-20 16:19 33.573103 -114.641646 104 30511ft 464kts
07-Oct-20 16:20 33.543795 -114.492830 104 29511ft 455kts
07-Oct-20 16:21 33.514693 -114.344633 105 27990ft 459kts
07-Oct-20 16:22 33.484887 -114.193335 105 24874ft 462kts
07-Oct-20 16:23 33.455932 -114.047729 105 24830ft 423kts
07-Oct-20 16:24 33.428437 -113.911091 105 24834ft 423kts
07-Oct-20 16:25 33.400780 -113.773460 105 24022ft 424kts
07-Oct-20 16:26 33.373775 -113.639974 105 22373ft 404kts
07-Oct-20 16:27 33.347769 -113.512423 105 20791ft 386kts
07-Oct-20 16:28 33.324926 -113.389721 103 19207ft 372kts
07-Oct-20 16:29 33.304308 -113.270190 104 17628ft 360kts
07-Oct-20 16:30 33.286505 -113.154654 102 16083ft 349kts
07-Oct-20 16:31 33.274894 -113.042477 91 15028ft 331kts
07-Oct-20 16:32 33.277661 -112.933953 90 13508ft 323kts
07-Oct-20 16:33 33.281419 -112.828268 82 12325ft 309kts
07-Oct-20 16:34 33.312445 -112.735414 67 11086ft 305kts
07-Oct-20 16:35 33.345827 -112.647564 67 10361ft 271kts
07-Oct-20 16:36 33.376594 -112.566923 68 9116ft 262kts
07-Oct-20 16:37 33.405903 -112.489486 69 8059ft 248kts
07-Oct-20 16:38 33.428425 -112.412638 88 6827ft 237kts
07-Oct-20 16:39 33.430076 -112.336884 82 5642ft 215kts
07-Oct-20 16:40 33.440626 -112.269497 86 4999ft 203kts
07-Oct-20 16:41 33.440938 -112.204393 89 3997ft 192kts
07-Oct-20 16:42 33.440882 -112.147480 89 3094ft 162kts
07-Oct-20 16:43 33.440818 -112.093739 89 2245ft 160kts
07-Oct-20 16:44 33.440800 -112.040711 89 1395ft 158kts
07-Oct-20 16:45 33.440824 -112.002846 90 1133ft 27kts
07-Oct-20 16:46 33.438971 -112.000758 180 1132ft 10kts

Navigation Log

Ident Type
Flight plan parsing failed, navigation log unavailable